Time;durP1;ratioP1;P1;durP2;ratioP2;P2;SDS_P1;SDS_P2;PMS_P1;PMS_P2;Temp;Humidity;BMP_temperature;BMP_pressure;BME280_temperature;BME280_humidity;BME280_pressure;Samples;Min_cycle;Max_cycle;Signal;HPM_P1;HPM_P2
2021/01/25 00:01:33;;;;;;;;;;;;;;;;;;;;;
2021/01/25 00:04:27;;;;;;;;;;;;;;;;;;;;;
2021/01/25 00:07:38;;;;;;;10.15;6.20;;;2.50;80.10;;;;;;5042181;28;20471;-93
2021/01/25 00:10:42;;;;;;;;;;;;;;;;;;;;;
2021/01/25 00:17:21;;;;;;;;;;;;;;;;;;;;;
2021/01/25 00:20:43;;;;;;;8.10;5.80;;;2.50;80.10;;;;;;5016811;28;20045;-94
2021/01/25 00:29:26;;;;;;;;;;;;;;;;;;;;;
2021/01/25 00:35:23;;;;;;;9.57;6.50;;;2.20;80.10;;;;;;5023244;28;20113;-93
2021/01/25 00:38:22;;;;;;;;;;;;;;;;;;;;;
2021/01/25 00:41:27;;;;;;;;;;;;;;;;;;;;;
2021/01/25 00:44:26;;;;;;;;;;;;;;;;;;;;;
2021/01/25 00:46:59;;;;;;;11.18;7.47;;;2.40;80.10;;;;;;5015586;28;20033;-92
2021/01/25 00:49:50;;;;;;;11.40;7.03;;;2.40;80.10;;;;;;5014901;28;20475;-91
2021/01/25 00:52:54;;;;;;;9.57;6.95;;;2.30;80.10;;;;;;5029999;28;20380;-92
2021/01/25 00:59:00;;;;;;;;;;;;;;;;;;;;;
2021/01/25 01:01:36;;;;;;;;;;;;;;;;;;;;;
2021/01/25 01:04:05;;;;;;;9.40;6.25;;;2.30;80.30;;;;;;5054687;28;20009;-92
2021/01/25 01:06:50;;;;;;;;;;;;;;;;;;;;;
2021/01/25 01:09:26;;;;;;;10.32;6.85;;;2.30;80.50;;;;;;5036761;28;20024;-92
2021/01/25 01:11:56;;;;;;;10.02;6.93;;;2.30;80.40;;;;;;5036197;28;20021;-93
2021/01/25 01:14:23;;;;;;;10.23;7.28;;;2.20;80.40;;;;;;5054179;28;20020;-93
2021/01/25 01:16:53;;;;;;;12.63;8.48;;;2.30;80.50;;;;;;5054496;28;20080;-92
2021/01/25 01:19:26;;;;;;;12.10;8.23;;;2.30;80.40;;;;;;5025195;28;20033;-91
2021/01/25 01:21:57;;;;;;;11.43;5.97;;;2.20;80.50;;;;;;5013642;28;20092;-92
2021/01/25 01:24:37;;;;;;;9.95;7.68;;;2.20;80.50;;;;;;5021203;28;20030;-92
2021/01/25 01:27:31;;;;;;;14.85;9.82;;;2.30;80.50;;;;;;5026836;28;20037;-92
2021/01/25 01:29:53;;;;;;;12.13;8.15;;;2.30;80.60;;;;;;5028022;28;20032;-91
2021/01/25 01:32:19;;;;;;;9.93;7.13;;;2.30;80.50;;;;;;5018845;28;20030;-90
2021/01/25 01:34:45;;;;;;;13.05;8.00;;;2.50;80.60;;;;;;5028464;28;20152;-91
2021/01/25 01:37:11;;;;;;;12.45;9.07;;;2.40;80.50;;;;;;5015239;28;20080;-91
2021/01/25 01:39:37;;;;;;;12.57;8.27;;;2.40;80.50;;;;;;5024106;28;20022;-91
2021/01/25 01:42:03;;;;;;;13.75;9.68;;;2.30;80.50;;;;;;5025606;28;20025;-92
2021/01/25 01:44:29;;;;;;;10.38;7.72;;;2.30;80.60;;;;;;5031364;28;20472;-90
2021/01/25 01:46:57;;;;;;;10.48;6.95;;;2.30;80.60;;;;;;5028843;28;20031;-90
2021/01/25 01:49:23;;;;;;;12.30;7.72;;;2.30;80.60;;;;;;5029827;28;20069;-90
2021/01/25 01:52:16;;;;;;;9.55;6.85;;;2.40;80.60;;;;;;5033914;28;20041;-93
2021/01/25 02:12:58;;;;;;;;;;;;;;;;;;;;;
2021/01/25 02:16:36;;;;;;;;;;;;;;;;;;;;;
2021/01/25 02:19:18;;;;;;;15.82;10.35;;;2.40;80.60;;;;;;5018531;28;20022;-93
2021/01/25 02:22:08;;;;;;;12.68;8.27;;;2.40;80.70;;;;;;5009685;28;20037;-93
2021/01/25 02:24:52;;;;;;;14.10;10.02;;;2.30;80.70;;;;;;5024440;28;20030;-93
2021/01/25 02:27:42;;;;;;;14.85;9.80;;;2.30;80.80;;;;;;5023358;28;20646;-93
2021/01/25 02:30:25;;;;;;;11.48;7.63;;;2.30;80.90;;;;;;5034121;28;20036;-92
2021/01/25 02:32:56;;;;;;;8.32;6.28;;;2.40;81.00;;;;;;5028290;28;20085;-93
2021/01/25 02:35:35;;;;;;;11.38;7.75;;;2.40;80.90;;;;;;5029217;28;20045;-92
2021/01/25 02:38:11;;;;;;;10.68;7.65;;;2.60;80.90;;;;;;5034814;28;20099;-93
2021/01/25 02:40:48;;;;;;;;;;;;;;;;;;;;;
2021/01/25 02:43:23;;;;;;;11.77;7.68;;;2.50;80.70;;;;;;5028893;28;20041;-91
2021/01/25 02:45:50;;;;;;;10.93;6.45;;;2.40;80.70;;;;;;5020475;28;20108;-91
2021/01/25 02:48:16;;;;;;;9.52;6.97;;;2.50;80.60;;;;;;5033444;28;20030;-91
2021/01/25 02:50:51;;;;;;;8.82;5.53;;;2.50;80.60;;;;;;5035444;28;20506;-92
2021/01/25 02:53:17;;;;;;;9.10;6.07;;;2.60;80.60;;;;;;5031894;28;20053;-92
2021/01/25 02:55:46;;;;;;;10.48;7.40;;;2.60;80.40;;;;;;5038637;28;20036;-93
2021/01/25 02:58:32;;;;;;;;;;;;;;;;;;;;;
2021/01/25 03:01:14;;;;;;;;;;;;;;;;;;;;;
2021/01/25 03:06:43;;;;;;;;;;;;;;;;;;;;;
2021/01/25 03:14:46;;;;;;;9.30;6.63;;;2.40;80.20;;;;;;5024748;28;20040;-92
2021/01/25 03:17:12;;;;;;;13.32;8.48;;;2.40;80.20;;;;;;5036689;28;20109;-91
2021/01/25 03:19:38;;;;;;;11.32;7.93;;;2.30;80.40;;;;;;5035695;28;20014;-91
2021/01/25 03:22:04;;;;;;;9.90;6.82;;;2.40;80.50;;;;;;5035200;28;20025;-91
2021/01/25 03:24:32;;;;;;;10.88;7.10;;;2.30;80.40;;;;;;5035317;28;20109;-92
2021/01/25 03:26:57;;;;;;;12.25;8.02;;;2.50;80.40;;;;;;5034802;28;20026;-91
2021/01/25 03:29:23;;;;;;;11.18;8.02;;;2.30;80.30;;;;;;5027029;28;20076;-91
2021/01/25 03:31:49;;;;;;;10.82;7.18;;;2.20;80.30;;;;;;5018877;28;20117;-90
2021/01/25 03:34:18;;;;;;;13.07;8.40;;;2.20;80.30;;;;;;5021964;28;20021;-90
2021/01/25 03:36:44;;;;;;;10.15;7.45;;;2.20;80.30;;;;;;5043116;28;20075;-90
2021/01/25 03:39:10;;;;;;;12.05;8.57;;;2.20;80.30;;;;;;5056309;28;20010;-90
2021/01/25 03:45:18;;;;;;;11.15;7.40;;;2.20;80.40;;;;;;4928009;28;20019;-89
2021/01/25 03:48:48;;;;;;;13.18;8.68;;;2.10;80.30;;;;;;5037495;28;20145;-92
2021/01/25 03:51:23;;;;;;;9.95;6.65;;;2.10;80.40;;;;;;5000405;28;20038;-91
2021/01/25 03:53:52;;;;;;;11.85;7.75;;;2.10;80.50;;;;;;5042114;28;20022;-92
2021/01/25 03:56:20;;;;;;;11.25;8.25;;;2.10;80.50;;;;;;5054560;28;20077;-92
2021/01/25 03:58:45;;;;;;;11.23;7.07;;;2.10;80.40;;;;;;5053635;28;20017;-93
2021/01/25 04:01:12;;;;;;;11.27;7.82;;;2.10;80.30;;;;;;5056134;28;20056;-93
2021/01/25 04:03:37;;;;;;;10.00;7.13;;;2.10;80.30;;;;;;5032419;28;20063;-92
2021/01/25 04:06:03;;;;;;;11.35;7.60;;;2.10;80.90;;;;;;5032937;28;20050;-86
2021/01/25 04:22:19;;;;;;;11.25;7.97;;;2.10;80.20;;;;;;4993157;28;20118;-89
2021/01/25 04:24:44;;;;;;;9.98;7.45;;;2.10;80.20;;;;;;4985353;28;20030;-90
2021/01/25 04:27:13;;;;;;;8.82;6.70;;;2.20;80.80;;;;;;5000661;28;20027;-90
2021/01/25 04:29:41;;;;;;;12.02;7.78;;;2.10;80.10;;;;;;5021422;28;20045;-91
2021/01/25 04:32:07;;;;;;;10.15;6.93;;;2.10;80.10;;;;;;5016822;28;20030;-91
2021/01/25 04:34:46;;;;;;;9.38;6.75;;;2.10;80.20;;;;;;5005662;28;20026;-90
2021/01/25 04:37:12;;;;;;;9.45;6.65;;;2.10;80.20;;;;;;5006472;28;20019;-91
2021/01/25 04:39:37;;;;;;;12.00;7.65;;;2.10;80.20;;;;;;5012186;28;20033;-91
2021/01/25 04:42:04;;;;;;;9.23;6.50;;;2.10;80.20;;;;;;5014310;28;20036;-90
2021/01/25 04:44:32;;;;;;;9.65;7.22;;;2.10;80.20;;;;;;5009334;28;20019;-90
2021/01/25 04:47:01;;;;;;;9.70;6.90;;;2.10;80.10;;;;;;5035658;28;20019;-89
2021/01/25 04:49:28;;;;;;;10.20;6.90;;;2.10;80.10;;;;;;5004805;28;20064;-89
2021/01/25 04:51:54;;;;;;;9.93;6.57;;;2.10;80.10;;;;;;4976596;28;20027;-89
2021/01/25 04:54:20;;;;;;;11.10;7.65;;;2.10;80.10;;;;;;4992758;28;20653;-90
2021/01/25 04:56:46;;;;;;;8.70;6.43;;;2.00;80.00;;;;;;4992423;28;20037;-90
2021/01/25 04:59:12;;;;;;;11.30;7.20;;;2.00;80.00;;;;;;4993067;28;20084;-89
2021/01/25 05:01:38;;;;;;;10.52;7.15;;;2.00;80.00;;;;;;4993169;28;20069;-91
2021/01/25 05:04:04;;;;;;;11.98;8.02;;;2.00;80.20;;;;;;5007516;28;20030;-92
2021/01/25 05:06:30;;;;;;;9.90;7.40;;;1.90;80.00;;;;;;4993070;28;20034;-90
2021/01/25 05:08:58;;;;;;;10.00;6.78;;;1.90;80.10;;;;;;4994680;28;20026;-91
2021/01/25 05:11:24;;;;;;;10.27;6.93;;;1.90;80.10;;;;;;5014237;28;20485;-91
2021/01/25 05:14:00;;;;;;;10.65;7.20;;;1.90;80.20;;;;;;5029801;28;20086;-91
2021/01/25 05:16:29;;;;;;;9.90;6.80;;;2.10;80.30;;;;;;4998634;28;20023;-91
2021/01/25 05:18:57;;;;;;;10.63;7.57;;;2.00;80.20;;;;;;4998320;28;20022;-90
2021/01/25 05:21:54;;;;;;;;;;;;;;;;;;;;;
2021/01/25 05:24:20;;;;;;;9.15;6.25;;;2.00;80.10;;;;;;5007752;28;20050;-92
2021/01/25 05:27:02;;;;;;;9.52;6.82;;;2.00;80.10;;;;;;5001172;28;20037;-91
2021/01/25 05:29:39;;;;;;;10.02;6.70;;;2.00;80.20;;;;;;5017663;28;20018;-92
2021/01/25 05:32:18;;;;;;;11.63;7.40;;;1.90;80.10;;;;;;5017672;28;20010;-93
2021/01/25 05:34:49;;;;;;;8.93;6.40;;;1.80;80.20;;;;;;5016498;28;20501;-93
2021/01/25 05:37:16;;;;;;;11.70;8.45;;;1.80;80.10;;;;;;5016315;28;20017;-91
2021/01/25 05:39:48;;;;;;;10.60;7.50;;;1.80;80.10;;;;;;5000628;28;20126;-93
2021/01/25 05:42:33;;;;;;;12.23;8.00;;;1.90;80.30;;;;;;5016410;28;20078;-92
2021/01/25 05:45:12;;;;;;;11.90;7.93;;;1.70;80.30;;;;;;5014557;28;20030;-90
2021/01/25 05:47:50;;;;;;;9.70;6.97;;;1.60;80.40;;;;;;5008154;28;20054;-89
2021/01/25 05:50:40;;;;;;;12.95;8.98;;;1.50;80.40;;;;;;5003675;28;20054;-90
2021/01/25 05:53:13;;;;;;;13.70;8.48;;;1.50;80.50;;;;;;5023568;28;20045;-91
2021/01/25 05:55:40;;;;;;;;;;;1.50;80.60;;;;;;4983588;28;20026;-91
2021/01/25 05:58:07;;;;;;;11.70;8.02;;;1.50;80.50;;;;;;5014980;28;19905;-91
2021/01/25 06:00:34;;;;;;;13.65;9.10;;;1.40;80.60;;;;;;5003922;28;20026;-91
2021/01/25 06:03:01;;;;;;;11.77;8.35;;;1.40;80.70;;;;;;5002671;28;20038;-90
2021/01/25 06:05:33;;;;;;;14.38;10.25;;;1.30;80.70;;;;;;4998262;28;20030;-90
2021/01/25 06:08:07;;;;;;;13.00;9.60;;;1.30;80.80;;;;;;5000566;28;20458;-89
2021/01/25 06:10:44;;;;;;;10.88;7.85;;;1.20;80.80;;;;;;5029444;28;20050;-89
2021/01/25 06:13:15;;;;;;;15.02;9.77;;;1.20;81.00;;;;;;4992329;28;20050;-90
2021/01/25 06:15:42;;;;;;;12.82;8.30;;;1.20;81.60;;;;;;5018297;28;20068;-89
2021/01/25 06:18:07;;;;;;;11.57;7.95;;;1.20;81.10;;;;;;5003751;28;20018;-85
2021/01/25 06:20:42;;;;;;;12.63;9.05;;;1.20;81.00;;;;;;4998193;28;20045;-92
2021/01/25 06:23:25;;;;;;;13.85;9.60;;;1.20;81.00;;;;;;4996131;28;20224;-91
2021/01/25 06:25:52;;;;;;;17.30;11.38;;;1.20;81.10;;;;;;4979590;28;20050;-93
2021/01/25 06:28:19;;;;;;;14.48;10.15;;;1.20;81.10;;;;;;4996030;28;20029;-92
2021/01/25 06:30:47;;;;;;;13.82;10.27;;;1.20;81.60;;;;;;4998686;28;20427;-91
2021/01/25 06:33:15;;;;;;;13.02;9.15;;;1.20;81.20;;;;;;5005167;28;20038;-91
2021/01/25 06:35:41;;;;;;;16.70;12.13;;;1.20;81.20;;;;;;4988945;28;20025;-87
2021/01/25 06:38:17;;;;;;;15.65;9.93;;;1.20;81.20;;;;;;5000810;28;20023;-90
2021/01/25 06:40:44;;;;;;;13.13;9.52;;;1.20;81.20;;;;;;5008144;28;20503;-89
2021/01/25 06:43:13;;;;;;;13.95;9.90;;;1.20;81.20;;;;;;4996539;28;20404;-89
2021/01/25 06:45:43;;;;;;;12.73;9.65;;;1.20;81.20;;;;;;4993669;28;20023;-88
2021/01/25 06:48:12;;;;;;;13.68;9.38;;;1.30;81.20;;;;;;4997259;28;20423;-89
2021/01/25 06:50:37;;;;;;;13.20;9.30;;;1.30;81.10;;;;;;5013429;28;20031;-89
2021/01/25 06:53:04;;;;;;;11.38;8.27;;;1.40;81.10;;;;;;4994675;28;20035;-89
2021/01/25 06:55:32;;;;;;;10.77;8.23;;;1.40;81.10;;;;;;4977603;28;20420;-89
2021/01/25 06:58:05;;;;;;;13.05;8.75;;;1.40;81.00;;;;;;4993666;28;20048;-88
2021/01/25 07:00:36;;;;;;;13.80;9.20;;;1.40;81.00;;;;;;4977667;28;20057;-88
2021/01/25 07:03:19;;;;;;;12.00;9.13;;;1.50;81.00;;;;;;5002361;28;20042;-88
2021/01/25 07:05:51;;;;;;;12.20;8.73;;;1.40;81.00;;;;;;5000974;28;20021;-89
2021/01/25 07:08:25;;;;;;;12.48;8.55;;;1.40;81.00;;;;;;5006152;28;20037;-89
2021/01/25 07:11:04;;;;;;;12.10;8.70;;;1.50;81.00;;;;;;5033418;22;20049;-88
2021/01/25 07:13:36;;;;;;;13.27;9.68;;;1.40;81.00;;;;;;5009420;28;20061;-87
2021/01/25 07:16:03;;;;;;;11.77;8.13;;;1.30;80.90;;;;;;5003455;28;20048;-88
2021/01/25 07:18:40;;;;;;;10.70;7.38;;;1.30;80.90;;;;;;5016031;28;20053;-86
2021/01/25 07:21:07;;;;;;;10.88;7.07;;;1.30;81.00;;;;;;5013440;28;20025;-88
2021/01/25 07:23:38;;;;;;;11.20;7.85;;;1.30;81.00;;;;;;5013766;28;20034;-88
2021/01/25 07:26:08;;;;;;;11.45;7.88;;;1.30;81.00;;;;;;5019204;28;20082;-90
2021/01/25 07:28:44;;;;;;;12.18;8.73;;;1.30;81.00;;;;;;5027248;28;20022;-91
2021/01/25 07:31:10;;;;;;;10.98;7.85;;;1.20;80.90;;;;;;5021834;28;20041;-87
2021/01/25 07:33:39;;;;;;;12.32;7.78;;;1.20;80.90;;;;;;5019570;28;20648;-84
2021/01/25 07:36:06;;;;;;;11.35;8.52;;;1.20;81.00;;;;;;5030996;28;20078;-89
2021/01/25 07:38:31;;;;;;;11.18;8.05;;;1.20;80.90;;;;;;5028626;28;20035;-86
2021/01/25 07:40:59;;;;;;;13.82;9.57;;;1.20;81.00;;;;;;5025369;28;20056;-87
2021/01/25 07:43:30;;;;;;;11.50;7.95;;;1.20;80.90;;;;;;5023606;28;20018;-86
2021/01/25 07:46:09;;;;;;;14.27;9.60;;;1.20;81.00;;;;;;5028392;28;20002;-94
2021/01/25 07:48:51;;;;;;;12.85;8.43;;;1.20;80.90;;;;;;5033140;28;20061;-86
2021/01/25 07:51:20;;;;;;;12.18;8.43;;;1.20;81.00;;;;;;5039965;28;20056;-87
2021/01/25 07:53:46;;;;;;;11.45;7.90;;;1.20;80.90;;;;;;5023234;28;20033;-85
2021/01/25 07:56:17;;;;;;;12.55;8.35;;;1.30;81.00;;;;;;5017256;28;20029;-88
2021/01/25 07:58:45;;;;;;;11.82;8.65;;;1.30;80.90;;;;;;5017122;28;20041;-88
2021/01/25 08:01:20;;;;;;;11.63;7.80;;;1.30;80.80;;;;;;4997233;28;20045;-90
2021/01/25 08:07:08;;;;;;;10.07;7.20;;;1.30;80.90;;;;;;5007934;28;20053;-88
2021/01/25 08:15:17;;;;;;;12.77;7.68;;;1.40;80.70;;;;;;5003840;22;20105;-89
2021/01/25 08:18:13;;;;;;;12.40;8.70;;;1.40;80.70;;;;;;4995517;28;20045;-90
2021/01/25 08:20:40;;;;;;;12.65;8.18;;;1.40;80.70;;;;;;5012582;28;20052;-90
2021/01/25 08:23:38;;;;;;;10.00;7.65;;;1.40;80.70;;;;;;4998521;28;20010;-91
2021/01/25 08:39:09;;;;;;;10.05;6.95;;;1.50;80.50;;;;;;5471465;22;20060;-90
2021/01/25 08:41:38;;;;;;;9.30;6.43;;;1.60;80.50;;;;;;5054336;28;20116;-89
2021/01/25 08:44:24;;;;;;;10.10;6.63;;;1.60;80.50;;;;;;5049733;28;20025;-90
2021/01/25 08:46:51;;;;;;;8.63;6.38;;;1.70;80.50;;;;;;5030516;28;20054;-90
2021/01/25 08:49:31;;;;;;;8.68;5.18;;;1.70;80.40;;;;;;5015200;28;20040;-90
2021/01/25 08:52:08;;;;;;;10.68;6.97;;;1.80;80.40;;;;;;5042826;28;20025;-88
2021/01/25 08:54:40;;;;;;;10.45;6.60;;;1.80;80.30;;;;;;5016423;28;20041;-88
2021/01/25 08:57:21;;;;;;;9.05;6.47;;;1.90;80.20;;;;;;5041414;28;20021;-89
2021/01/25 08:59:48;;;;;;;9.65;7.15;;;1.90;80.20;;;;;;5031495;28;20116;-88
2021/01/25 09:02:22;;;;;;;9.63;6.85;;;2.00;80.20;;;;;;5014357;28;20026;-89
2021/01/25 09:04:53;;;;;;;8.63;5.93;;;2.00;80.10;;;;;;5014941;28;20033;-89
2021/01/25 09:07:23;;;;;;;9.27;6.53;;;2.00;80.00;;;;;;5041705;28;20131;-89
2021/01/25 09:09:49;;;;;;;10.90;7.63;;;2.10;80.00;;;;;;5028217;28;20048;-89
2021/01/25 09:12:16;;;;;;;10.43;7.05;;;2.10;79.90;;;;;;5034013;28;20022;-90
2021/01/25 09:15:05;;;;;;;12.15;7.90;;;2.10;79.90;;;;;;5031606;28;20036;-89
2021/01/25 09:17:30;;;;;;;11.18;7.13;;;2.20;79.90;;;;;;5021330;28;20044;-88
2021/01/25 09:19:56;;;;;;;8.40;5.75;;;2.20;79.80;;;;;;5019828;28;20468;-87
2021/01/25 09:22:22;;;;;;;9.45;6.95;;;2.20;79.70;;;;;;5008180;28;20025;-90
2021/01/25 09:24:48;;;;;;;9.82;7.43;;;2.20;79.80;;;;;;5002574;28;20490;-87
2021/01/25 09:27:14;;;;;;;11.07;7.85;;;2.20;79.70;;;;;;5031398;28;20045;-87
2021/01/25 09:29:40;;;;;;;11.30;6.82;;;2.20;79.60;;;;;;5008080;28;20033;-89
2021/01/25 09:32:08;;;;;;;10.75;7.50;;;2.20;79.60;;;;;;5029347;28;20366;-87
2021/01/25 09:34:37;;;;;;;10.10;7.00;;;2.30;79.60;;;;;;5051255;28;20057;-89
2021/01/25 09:37:05;;;;;;;11.30;8.02;;;2.30;79.60;;;;;;5026806;28;20021;-90
2021/01/25 09:39:30;;;;;;;11.05;7.68;;;2.20;79.50;;;;;;5037595;28;20021;-90
2021/01/25 09:41:56;;;;;;;11.40;8.40;;;2.20;79.50;;;;;;5037500;28;20040;-89
2021/01/25 09:44:23;;;;;;;12.98;8.25;;;2.30;79.50;;;;;;5033060;28;20039;-91
2021/01/25 09:46:49;;;;;;;11.32;7.90;;;2.30;79.50;;;;;;5036302;28;20293;-88
2021/01/25 09:49:14;;;;;;;14.35;9.32;;;2.30;79.30;;;;;;5046908;28;20033;-90
2021/01/25 09:51:42;;;;;;;13.35;8.85;;;2.40;79.40;;;;;;5044716;28;20021;-91
2021/01/25 09:54:08;;;;;;;12.70;8.80;;;2.40;79.40;;;;;;5039768;28;20028;-91
2021/01/25 09:56:35;;;;;;;12.20;8.70;;;2.40;79.40;;;;;;5021304;28;20057;-92
2021/01/25 09:59:03;;;;;;;11.95;8.65;;;2.40;79.50;;;;;;5019747;28;20094;-91
2021/01/25 10:01:30;;;;;;;13.80;9.90;;;2.50;79.50;;;;;;5036695;28;20030;-93
2021/01/25 10:04:08;;;;;;;17.05;10.45;;;2.50;79.40;;;;;;5036812;28;20032;-94
2021/01/25 10:06:35;;;;;;;15.90;10.60;;;2.60;79.50;;;;;;5037449;28;20028;-93
2021/01/25 10:09:05;;;;;;;13.75;9.52;;;2.60;79.40;;;;;;5036813;28;20026;-92
2021/01/25 10:11:31;;;;;;;12.43;8.38;;;2.60;80.00;;;;;;5032301;28;20026;-91
2021/01/25 10:14:14;;;;;;;15.65;9.32;;;2.70;79.40;;;;;;5035629;28;20025;-91
2021/01/25 10:16:40;;;;;;;;;;;2.70;79.30;;;;;;5036734;28;20010;-93
2021/01/25 10:19:11;;;;;;;13.05;9.05;;;2.70;79.30;;;;;;5051577;28;19940;-92
2021/01/25 10:21:37;;;;;;;12.82;8.63;;;2.90;79.30;;;;;;5037691;28;20049;-91
2021/01/25 10:24:03;;;;;;;14.55;8.13;;;2.80;79.20;;;;;;5046636;28;20081;-91
2021/01/25 10:26:28;;;;;;;10.50;7.35;;;2.90;79.20;;;;;;5035840;28;20456;-90
2021/01/25 10:28:54;;;;;;;11.50;7.85;;;2.90;79.70;;;;;;5031255;28;20032;-92
2021/01/25 10:31:20;;;;;;;11.35;7.60;;;3.00;79.10;;;;;;5048109;28;20036;-91
2021/01/25 10:33:45;;;;;;;12.25;7.70;;;3.00;79.00;;;;;;5047838;28;20005;-90
2021/01/25 10:36:11;;;;;;;10.93;7.72;;;3.10;79.00;;;;;;5030198;28;20019;-92
2021/01/25 10:38:37;;;;;;;12.43;8.80;;;3.30;79.00;;;;;;5035863;28;20043;-91
2021/01/25 10:41:03;;;;;;;13.05;8.38;;;3.10;78.80;;;;;;5056332;28;20021;-94
2021/01/25 10:43:29;;;;;;;12.60;8.07;;;3.20;78.70;;;;;;5031667;28;20017;-89
2021/01/25 10:45:54;;;;;;;10.10;6.70;;;3.30;78.70;;;;;;5035581;28;20055;-90
2021/01/25 10:48:20;;;;;;;11.60;7.50;;;3.30;78.60;;;;;;5039318;28;20037;-91
2021/01/25 10:50:46;;;;;;;9.13;6.45;;;3.50;78.60;;;;;;5049859;28;20438;-89
2021/01/25 10:53:11;;;;;;;10.40;6.80;;;3.50;78.50;;;;;;5034370;28;20124;-88
2021/01/25 10:55:37;;;;;;;10.07;6.45;;;3.60;78.30;;;;;;5024033;28;20556;-89
2021/01/25 10:58:03;;;;;;;10.40;6.80;;;3.70;78.30;;;;;;5034284;28;20459;-91
2021/01/25 11:00:28;;;;;;;10.85;7.53;;;3.70;78.10;;;;;;5049031;28;20024;-87
2021/01/25 11:02:55;;;;;;;10.20;6.88;;;3.80;78.10;;;;;;5054946;28;20100;-88
2021/01/25 11:05:26;;;;;;;8.93;6.20;;;3.90;78.00;;;;;;5028792;28;20041;-87
2021/01/25 11:07:52;;;;;;;12.80;7.38;;;4.00;77.90;;;;;;5048438;28;20151;-88
2021/01/25 11:10:25;;;;;;;12.15;8.27;;;4.00;77.70;;;;;;5039566;28;20025;-87
2021/01/25 11:12:51;;;;;;;;;;;4.10;77.50;;;;;;5034223;28;20060;-86
2021/01/25 11:15:21;;;;;;;11.52;7.45;;;4.20;77.50;;;;;;5034381;28;20386;-85
2021/01/25 11:17:47;;;;;;;9.93;6.72;;;4.10;77.40;;;;;;5016345;28;20402;-85
2021/01/25 11:20:14;;;;;;;9.60;6.35;;;4.20;77.30;;;;;;5022297;28;20022;-85
2021/01/25 11:22:40;;;;;;;10.55;7.05;;;4.30;77.20;;;;;;5033866;28;20040;-87
2021/01/25 11:25:06;;;;;;;9.85;6.38;;;4.30;77.00;;;;;;5009854;28;20026;-86
2021/01/25 11:27:32;;;;;;;11.00;7.65;;;4.40;76.80;;;;;;5030904;28;20510;-87
2021/01/25 11:32:46;;;;;;;10.88;6.82;;;4.50;76.30;;;;;;5162600;22;20523;-93
2021/01/25 11:35:12;;;;;;;8.32;5.80;;;4.60;76.30;;;;;;4988408;28;20070;-94
2021/01/25 11:37:37;;;;;;;8.93;5.90;;;4.60;76.20;;;;;;5005690;28;20026;-93
2021/01/25 11:40:06;;;;;;;9.25;6.03;;;4.60;75.90;;;;;;5020103;28;20341;-95
2021/01/25 11:42:33;;;;;;;8.48;5.82;;;4.70;75.80;;;;;;5002716;28;20044;-94
2021/01/25 11:44:58;;;;;;;9.02;6.00;;;4.80;75.60;;;;;;5001981;28;20038;-93
2021/01/25 11:52:38;;;;;;;8.10;4.95;;;4.90;75.10;;;;;;5097814;22;20061;-92
2021/01/25 11:55:04;;;;;;;8.25;5.88;;;5.00;75.00;;;;;;5009114;28;20033;-91
2021/01/25 11:57:31;;;;;;;11.38;6.78;;;5.10;75.00;;;;;;5022151;28;20088;-92
2021/01/25 11:59:57;;;;;;;9.05;5.88;;;5.10;74.70;;;;;;4997143;28;20514;-91
2021/01/25 12:02:24;;;;;;;7.82;5.45;;;5.20;74.70;;;;;;5011786;28;20026;-92
2021/01/25 12:04:50;;;;;;;9.05;6.25;;;5.20;74.60;;;;;;5014273;28;20026;-92
2021/01/25 12:07:29;;;;;;;8.38;5.68;;;5.30;74.70;;;;;;5020854;28;20037;-91
2021/01/25 12:10:02;;;;;;;12.63;8.00;;;5.30;74.60;;;;;;5015785;28;20029;-89
2021/01/25 12:12:30;;;;;;;9.15;5.90;;;5.30;74.40;;;;;;5004065;28;20526;-95
2021/01/25 12:15:03;;;;;;;7.20;5.15;;;5.50;75.30;;;;;;5008434;28;20022;-91
2021/01/25 12:17:39;;;;;;;9.45;5.75;;;5.70;75.60;;;;;;5013413;28;20839;-91
2021/01/25 12:20:05;;;;;;;8.27;5.53;;;7.20;74.20;;;;;;5014567;28;20030;-90
2021/01/25 12:22:31;;;;;;;7.85;5.68;;;9.10;69.40;;;;;;5020503;28;20046;-91
2021/01/25 12:24:57;;;;;;;7.78;5.25;;;10.60;65.40;;;;;;5018125;28;20053;-91
2021/01/25 12:27:22;;;;;;;5.82;3.83;;;11.40;62.20;;;;;;5017146;28;20038;-90
2021/01/25 12:29:49;;;;;;;8.05;5.32;;;10.70;61.60;;;;;;5017731;28;20022;-90
2021/01/25 12:32:14;;;;;;;6.85;4.47;;;9.50;63.50;;;;;;5020373;28;20037;-91
2021/01/25 12:34:42;;;;;;;5.53;4.03;;;8.70;65.60;;;;;;5021672;28;20590;-93
2021/01/25 12:37:07;;;;;;;7.03;5.13;;;8.10;67.30;;;;;;5014098;28;20044;-90
2021/01/25 12:39:33;;;;;;;6.40;4.82;;;7.80;69.30;;;;;;5015186;28;20094;-91
2021/01/25 12:41:58;;;;;;;5.15;3.50;;;9.00;68.80;;;;;;5012352;28;20030;-91
2021/01/25 12:44:24;;;;;;;5.53;3.63;;;10.50;65.30;;;;;;5023002;28;20030;-91
2021/01/25 12:49:36;;;;;;;4.97;3.30;;;12.10;60.80;;;;;;5013793;28;20034;-90
2021/01/25 12:52:12;;;;;;;5.65;3.80;;;12.50;59.60;;;;;;5018901;28;20034;-90
2021/01/25 12:54:47;;;;;;;5.03;3.45;;;12.90;58.70;;;;;;5027709;28;20030;-90
2021/01/25 12:57:25;;;;;;;4.82;3.42;;;13.10;57.50;;;;;;5012310;28;20076;-90
2021/01/25 13:00:20;;;;;;;5.05;3.30;;;12.70;56.30;;;;;;5014544;28;20025;-92
2021/01/25 13:02:46;;;;;;;3.78;2.85;;;12.90;56.90;;;;;;5009066;28;20056;-90
2021/01/25 13:05:18;;;;;;;4.20;3.08;;;13.20;56.60;;;;;;5016709;28;20044;-90
2021/01/25 13:07:44;;;;;;;4.65;3.22;;;13.20;55.70;;;;;;5011887;28;20106;-90
2021/01/25 13:10:13;;;;;;;4.28;3.13;;;13.50;55.70;;;;;;5017751;28;20014;-91
2021/01/25 13:12:48;;;;;;;5.57;3.78;;;13.70;55.10;;;;;;5018240;28;20079;-91
2021/01/25 13:15:30;;;;;;;4.85;3.15;;;13.70;53.70;;;;;;5014676;28;20050;-91
2021/01/25 13:17:59;;;;;;;3.40;2.75;;;13.30;53.30;;;;;;5019534;28;20062;-92
2021/01/25 13:20:35;;;;;;;5.28;2.70;;;13.20;53.20;;;;;;5007452;28;20032;-95
2021/01/25 13:23:04;;;;;;;3.30;2.30;;;13.40;53.20;;;;;;5019581;28;20030;-91
2021/01/25 13:25:29;;;;;;;3.35;2.47;;;12.70;53.30;;;;;;5017269;28;20034;-94
2021/01/25 13:30:30;;;;;;;2.92;2.33;;;12.10;55.00;;;;;;5344225;22;20049;-91
2021/01/25 13:32:56;;;;;;;3.03;2.10;;;11.40;55.50;;;;;;5003234;28;20497;-92
2021/01/25 13:35:25;;;;;;;3.85;2.80;;;10.50;57.00;;;;;;5025261;28;20140;-91
2021/01/25 13:38:06;;;;;;;4.13;3.08;;;10.00;58.40;;;;;;5013606;28;20042;-90
2021/01/25 13:40:32;;;;;;;2.83;2.17;;;9.60;57.90;;;;;;5011833;28;20026;-90
2021/01/25 13:42:57;;;;;;;4.07;2.60;;;9.70;58.70;;;;;;5008070;28;20045;-90
2021/01/25 13:45:36;;;;;;;4.55;2.60;;;9.30;59.00;;;;;;5018143;28;20034;-89
2021/01/25 13:48:13;;;;;;;3.13;2.00;;;9.00;59.80;;;;;;5020085;28;20118;-89
2021/01/25 13:51:03;;;;;;;3.85;2.58;;;8.90;60.50;;;;;;5007892;28;20042;-90
2021/01/25 13:53:41;;;;;;;3.35;2.53;;;9.00;60.80;;;;;;5018427;28;20049;-90
2021/01/25 13:56:39;;;;;;;3.90;3.03;;;8.80;60.80;;;;;;5011891;28;20025;-88
2021/01/25 13:59:11;;;;;;;2.53;2.03;;;8.60;61.00;;;;;;5004342;28;20030;-90
2021/01/25 14:01:49;;;;;;;3.30;2.55;;;8.50;61.40;;;;;;5023779;28;20033;-89
2021/01/25 14:04:16;;;;;;;4.43;2.78;;;8.30;61.70;;;;;;5296250;22;20046;-91
2021/01/25 14:06:41;;;;;;;3.83;2.50;;;8.20;61.90;;;;;;5028951;28;20037;-89
2021/01/25 14:09:07;;;;;;;3.67;2.78;;;8.20;62.30;;;;;;5017793;28;20034;-92
2021/01/25 14:11:35;;;;;;;4.07;2.55;;;8.10;62.30;;;;;;5018751;28;20134;-92
2021/01/25 14:14:00;;;;;;;6.78;3.03;;;8.10;62.40;;;;;;5018804;28;20033;-92
2021/01/25 14:16:26;;;;;;;4.57;2.83;;;8.00;61.90;;;;;;5014747;28;20109;-92
2021/01/25 14:18:52;;;;;;;3.58;2.30;;;7.90;61.70;;;;;;5014231;28;20022;-93
2021/01/25 14:21:18;;;;;;;4.38;2.80;;;7.90;61.80;;;;;;5015554;28;20038;-93
2021/01/25 14:23:44;;;;;;;2.88;2.13;;;7.80;61.60;;;;;;5019249;28;20037;-93
2021/01/25 14:26:10;;;;;;;2.75;2.00;;;7.80;61.90;;;;;;5020063;28;20041;-92
2021/01/25 14:28:36;;;;;;;2.90;2.20;;;7.80;62.00;;;;;;5027255;28;20564;-93
2021/01/25 14:31:01;;;;;;;2.85;2.05;;;7.60;62.20;;;;;;5025779;28;20291;-93
2021/01/25 14:33:27;;;;;;;2.15;1.60;;;7.60;62.50;;;;;;5026877;28;20040;-93
2021/01/25 14:35:54;;;;;;;3.28;2.38;;;7.60;62.70;;;;;;5024386;28;20029;-94
2021/01/25 14:38:21;;;;;;;2.63;1.80;;;7.40;62.60;;;;;;5021336;28;20030;-92
2021/01/25 14:40:47;;;;;;;2.72;1.90;;;7.40;62.70;;;;;;5025065;28;20474;-90
2021/01/25 14:43:14;;;;;;;2.75;1.77;;;7.30;62.40;;;;;;5039445;28;20036;-89
2021/01/25 14:45:40;;;;;;;2.53;2.00;;;7.30;62.40;;;;;;5021141;28;20030;-90
2021/01/25 14:48:06;;;;;;;3.25;2.33;;;7.20;62.20;;;;;;5024265;28;20037;-92
2021/01/25 14:50:32;;;;;;;3.58;2.13;;;7.10;62.40;;;;;;5024969;28;20025;-91
2021/01/25 14:52:59;;;;;;;3.08;2.17;;;7.10;62.90;;;;;;5020598;28;20068;-93
2021/01/25 14:55:30;;;;;;;3.22;2.30;;;7.10;63.10;;;;;;5025265;28;20509;-92
2021/01/25 14:57:56;;;;;;;3.28;2.30;;;7.00;63.20;;;;;;5019401;28;20033;-91
2021/01/25 15:00:24;;;;;;;5.80;3.45;;;7.20;63.50;;;;;;5023763;28;20117;-92
2021/01/25 15:02:50;;;;;;;3.30;2.38;;;7.00;63.30;;;;;;5024046;28;20014;-91
2021/01/25 15:05:19;;;;;;;3.10;2.15;;;6.90;63.30;;;;;;5015606;28;20502;-92
2021/01/25 15:07:45;;;;;;;2.63;2.10;;;6.90;64.20;;;;;;5014135;28;20215;-92
2021/01/25 15:10:12;;;;;;;2.70;2.00;;;6.90;63.70;;;;;;5023295;28;20041;-93